Terminal Aerodrome Forecast
Issued by NWS Charleston, WV

Home | Current Version | Previous Version | Text Only | Print | Product List | Glossary On
Versions: 1 2 3 4 5 6 7 8 9 10 11 12 13 14 15 16 17 18 19 20 21 22
000
FTUS41 KRLX 250841 AAA
TAFPKB
TAF AMD
KPKB 250841Z 2509/2606 VRB03KT 2SM BR OVC015
     FM251200 33004KT 5SM BR OVC010
     FM251600 32004KT P6SM OVC015
     FM252000 32005KT P6SM OVC020
     FM260100 33006KT P6SM BKN035=

USA.gov is the U.S. government's official web portal to all federal, state and local government web resources and services.